Time;durP1;ratioP1;P1;durP2;ratioP2;P2;SDS_P1;SDS_P2;PMS_P1;PMS_P2;Temp;Humidity;BMP_temperature;BMP_pressure;BME280_temperature;BME280_humidity;BME280_pressure;Samples;Min_cycle;Max_cycle;Signal;HPM_P1;HPM_P2
2023/01/15 00:01:20;;;;;;;613.67;190.98;;;1.90;99.90;;;;;;5055921;28;20025;-56
2023/01/15 00:03:46;;;;;;;421.30;149.43;;;1.70;99.90;;;;;;5055787;28;20032;-56
2023/01/15 00:06:12;;;;;;;445.95;143.38;;;1.80;99.90;;;;;;5055839;28;20037;-56
2023/01/15 00:08:38;;;;;;;466.70;146.45;;;1.90;99.90;;;;;;5055724;28;20021;-56
2023/01/15 00:11:05;;;;;;;467.08;142.98;;;1.80;99.90;;;;;;5055464;28;20547;-56
2023/01/15 00:13:31;;;;;;;452.70;147.38;;;1.70;99.90;;;;;;5055576;28;20040;-56
2023/01/15 00:16:16;;;;;;;499.30;160.48;;;1.80;99.90;;;;;;5055733;28;20395;-56
2023/01/15 00:18:42;;;;;;;497.55;153.02;;;1.90;99.90;;;;;;5049639;28;20509;-56
2023/01/15 00:21:11;;;;;;;442.95;147.30;;;2.00;99.90;;;;;;5035632;28;20028;-57
2023/01/15 00:29:14;;;;;;;544.20;156.70;;;1.70;99.90;;;;;;5034110;28;20052;-56
2023/01/15 00:31:42;;;;;;;593.38;164.63;;;1.60;99.90;;;;;;5032173;28;20025;-56
2023/01/15 00:34:08;;;;;;;522.10;155.57;;;1.60;99.90;;;;;;5055063;28;20029;-56
2023/01/15 00:36:36;;;;;;;509.33;147.95;;;1.60;99.90;;;;;;5055198;28;20021;-56
2023/01/15 00:39:03;;;;;;;441.25;129.63;;;1.50;99.90;;;;;;5055037;28;20021;-56
2023/01/15 00:41:29;;;;;;;719.33;175.75;;;1.60;99.90;;;;;;5055117;28;20037;-56
2023/01/15 00:43:56;;;;;;;502.52;136.73;;;1.50;99.90;;;;;;5055139;28;20047;-56
2023/01/15 00:46:22;;;;;;;476.75;140.80;;;1.40;99.90;;;;;;5054865;28;20116;-56
2023/01/15 00:48:48;;;;;;;389.98;127.65;;;1.40;99.90;;;;;;5037045;28;20069;-56
2023/01/15 00:51:14;;;;;;;473.63;144.52;;;1.50;99.90;;;;;;5053761;28;20033;-56
2023/01/15 00:53:40;;;;;;;589.50;163.82;;;1.40;99.90;;;;;;5036774;28;20044;-56
2023/01/15 00:56:06;;;;;;;418.67;141.60;;;1.40;99.90;;;;;;5054885;28;20029;-56
2023/01/15 00:58:32;;;;;;;471.52;151.00;;;1.40;99.90;;;;;;5054735;28;20083;-56
2023/01/15 01:01:01;;;;;;;549.25;168.48;;;1.40;99.90;;;;;;5054588;28;20048;-57
2023/01/15 01:03:28;;;;;;;405.92;144.55;;;1.50;99.90;;;;;;5036831;28;20083;-56
2023/01/15 01:05:59;;;;;;;497.40;164.25;;;1.50;99.90;;;;;;5036994;28;20032;-56
2023/01/15 01:08:25;;;;;;;457.70;163.77;;;1.40;99.90;;;;;;5054517;28;20033;-56
2023/01/15 01:11:05;;;;;;;472.52;160.00;;;1.40;99.90;;;;;;5036586;28;20045;-56
2023/01/15 01:13:32;;;;;;;550.70;171.52;;;1.50;99.90;;;;;;5054373;28;20025;-56
2023/01/15 01:15:59;;;;;;;397.10;152.70;;;1.50;99.90;;;;;;5053339;28;20073;-56
2023/01/15 01:18:25;;;;;;;467.42;162.73;;;1.60;99.90;;;;;;5051080;28;20018;-56
2023/01/15 01:20:52;;;;;;;447.63;159.80;;;1.50;99.90;;;;;;5034497;28;20033;-56
2023/01/15 01:23:18;;;;;;;535.25;191.38;;;1.50;99.90;;;;;;5034289;28;20076;-56
2023/01/15 01:25:45;;;;;;;513.13;191.52;;;1.50;99.90;;;;;;5035096;28;20116;-56
2023/01/15 01:28:11;;;;;;;425.98;165.45;;;1.50;99.90;;;;;;5034508;28;20403;-56
2023/01/15 01:30:37;;;;;;;468.90;160.38;;;1.50;99.90;;;;;;5040248;28;20034;-56
2023/01/15 01:33:03;;;;;;;420.17;150.38;;;1.40;99.90;;;;;;5054401;28;20024;-56
2023/01/15 01:35:30;;;;;;;450.15;161.80;;;1.40;99.90;;;;;;5054092;28;20021;-56
2023/01/15 01:37:56;;;;;;;371.23;147.43;;;1.30;99.90;;;;;;5054385;28;20029;-56
2023/01/15 01:40:22;;;;;;;377.63;146.00;;;1.40;99.90;;;;;;5055103;28;20029;-56
2023/01/15 01:42:48;;;;;;;455.15;153.32;;;1.40;99.90;;;;;;5061048;28;20032;-57
2023/01/15 01:45:26;;;;;;;371.70;146.43;;;1.40;99.90;;;;;;5043011;28;20037;-56
2023/01/15 01:47:59;;;;;;;385.23;143.30;;;1.20;99.90;;;;;;5060636;28;20036;-56
2023/01/15 01:50:26;;;;;;;314.55;121.43;;;1.00;99.90;;;;;;5060811;28;20579;-56
2023/01/15 01:53:02;;;;;;;268.60;113.03;;;0.80;99.90;;;;;;5061025;28;20036;-56
2023/01/15 01:55:30;;;;;;;251.93;110.15;;;0.90;99.90;;;;;;5060721;28;20040;-56
2023/01/15 01:57:59;;;;;;;271.85;111.50;;;0.90;99.90;;;;;;5042868;28;20059;-56
2023/01/15 02:00:27;;;;;;;226.35;99.93;;;1.10;99.90;;;;;;5059349;28;20037;-56
2023/01/15 02:02:53;;;;;;;283.63;117.70;;;1.20;99.90;;;;;;5061065;28;20044;-56
2023/01/15 02:05:30;;;;;;;249.82;106.20;;;1.20;99.90;;;;;;5060732;28;20025;-56
2023/01/15 02:07:56;;;;;;;240.95;99.18;;;1.20;99.90;;;;;;5060775;28;20024;-56
2023/01/15 02:10:22;;;;;;;261.02;107.32;;;1.20;99.90;;;;;;5042524;28;20063;-56
2023/01/15 02:12:59;;;;;;;239.20;101.93;;;1.10;99.90;;;;;;5042576;28;20436;-57
2023/01/15 02:15:54;;;;;;;227.70;96.75;;;1.00;99.90;;;;;;5042783;28;20025;-56
2023/01/15 02:18:28;;;;;;;235.80;97.97;;;1.00;99.90;;;;;;5056475;28;20025;-56
2023/01/15 02:21:11;;;;;;;213.23;93.72;;;1.00;99.90;;;;;;5040727;28;20030;-56
2023/01/15 02:23:46;;;;;;;208.35;87.88;;;1.00;99.90;;;;;;5040540;28;20487;-56
2023/01/15 02:26:56;;;;;;;218.13;92.97;;;1.20;99.90;;;;;;5040324;28;20025;-56
2023/01/15 02:29:37;;;;;;;206.73;89.75;;;1.10;99.90;;;;;;4979971;28;20072;-56
2023/01/15 02:32:10;;;;;;;224.85;92.65;;;1.30;99.90;;;;;;5058254;28;20533;-56
2023/01/15 02:34:43;;;;;;;208.38;88.63;;;1.30;99.90;;;;;;5042569;28;20375;-56
2023/01/15 02:37:16;;;;;;;265.05;106.55;;;1.30;99.90;;;;;;5042366;28;20029;-56
2023/01/15 02:39:45;;;;;;;186.23;83.57;;;1.20;99.90;;;;;;5059218;28;20086;-57
2023/01/15 02:42:15;;;;;;;210.98;86.65;;;1.10;99.90;;;;;;5042400;28;20115;-56
2023/01/15 02:44:49;;;;;;;195.73;85.63;;;1.10;99.90;;;;;;5042562;28;20048;-56
2023/01/15 02:47:22;;;;;;;197.52;84.07;;;1.20;99.90;;;;;;5060317;28;20085;-57
2023/01/15 02:49:50;;;;;;;255.80;95.05;;;1.20;99.90;;;;;;5042401;28;20048;-57
2023/01/15 02:52:32;;;;;;;198.88;82.82;;;1.10;99.90;;;;;;5056308;28;20112;-56
2023/01/15 02:55:07;;;;;;;200.82;80.25;;;1.10;99.90;;;;;;5055881;28;20390;-56
2023/01/15 02:57:40;;;;;;;190.60;80.83;;;1.10;99.90;;;;;;5055778;28;20041;-57
2023/01/15 03:00:10;;;;;;;179.88;74.47;;;0.90;99.90;;;;;;5055765;28;20057;-56
2023/01/15 03:02:46;;;;;;;159.55;72.75;;;1.10;99.90;;;;;;5039175;28;20086;-56
2023/01/15 03:05:35;;;;;;;167.00;71.85;;;1.20;99.90;;;;;;5039021;28;20109;-56
2023/01/15 03:08:03;;;;;;;190.57;77.85;;;1.30;99.90;;;;;;5039077;28;20114;-56
2023/01/15 03:11:14;;;;;;;165.90;70.95;;;1.00;99.90;;;;;;5055458;28;20060;-56
2023/01/15 03:13:57;;;;;;;194.82;74.13;;;1.10;99.90;;;;;;5054656;28;20040;-57
2023/01/15 03:16:37;;;;;;;203.75;81.47;;;1.20;99.90;;;;;;5055418;28;20500;-56
2023/01/15 03:19:29;;;;;;;249.07;88.65;;;1.20;99.90;;;;;;5030312;28;20159;-56
2023/01/15 03:22:02;;;;;;;236.23;76.95;;;1.10;99.90;;;;;;5018868;28;20093;-56
2023/01/15 03:24:36;;;;;;;249.68;86.35;;;0.90;99.90;;;;;;5018972;28;20109;-57
2023/01/15 03:27:03;;;;;;;328.58;82.80;;;0.80;99.90;;;;;;5018891;28;20033;-56
2023/01/15 03:29:32;;;;;;;408.23;93.65;;;0.60;99.90;;;;;;5018888;28;20037;-56
2023/01/15 03:32:00;;;;;;;461.23;97.60;;;0.50;99.90;;;;;;5035917;28;20040;-57
2023/01/15 03:34:36;;;;;;;285.80;82.78;;;0.50;99.90;;;;;;5038546;28;20036;-56
2023/01/15 03:37:03;;;;;;;354.15;90.38;;;0.70;99.90;;;;;;5038561;28;20410;-56
2023/01/15 03:39:29;;;;;;;557.35;108.75;;;0.80;99.90;;;;;;5056515;28;20100;-56
2023/01/15 03:42:00;;;;;;;;;;;0.70;99.90;;;;;;5056792;28;20481;-56
2023/01/15 03:44:38;;;;;;;407.20;91.65;;;0.70;99.90;;;;;;5071577;28;19991;-56
2023/01/15 03:47:15;;;;;;;402.70;92.18;;;0.60;99.90;;;;;;5038390;28;20458;-56
2023/01/15 03:49:59;;;;;;;566.13;107.25;;;0.60;99.90;;;;;;5038437;28;20095;-56
2023/01/15 03:53:03;;;;;;;339.08;85.15;;;0.50;99.90;;;;;;5038135;28;20063;-57
2023/01/15 03:55:50;;;;;;;444.63;92.55;;;0.30;99.90;;;;;;5038179;28;20033;-56
2023/01/15 03:58:23;;;;;;;520.28;105.25;;;0.20;99.90;;;;;;5054619;28;20378;-56
2023/01/15 04:00:58;;;;;;;339.02;81.82;;;0.20;99.90;;;;;;5037887;28;20382;-56
2023/01/15 04:03:27;;;;;;;269.75;83.25;;;0.20;99.90;;;;;;5054065;28;20032;-56
2023/01/15 04:05:56;;;;;;;306.95;80.60;;;0.20;99.90;;;;;;5037999;28;20493;-56
2023/01/15 04:08:24;;;;;;;201.68;71.75;;;0.20;99.90;;;;;;5054511;28;20561;-56
2023/01/15 04:10:58;;;;;;;207.05;75.35;;;0.30;99.90;;;;;;5054198;28;20550;-56
2023/01/15 04:13:29;;;;;;;339.02;83.07;;;0.50;99.90;;;;;;5037604;28;20037;-56
2023/01/15 04:15:55;;;;;;;233.43;73.80;;;0.50;99.90;;;;;;5054257;28;20025;-56
2023/01/15 04:18:21;;;;;;;343.77;86.53;;;0.40;99.90;;;;;;5034911;28;20120;-56
2023/01/15 04:20:48;;;;;;;368.27;93.78;;;0.60;99.90;;;;;;5034468;28;20436;-56
2023/01/15 04:23:15;;;;;;;509.70;106.28;;;0.40;99.90;;;;;;5017745;28;20025;-56
2023/01/15 04:25:41;;;;;;;255.32;78.65;;;0.20;99.90;;;;;;5035740;28;20034;-56
2023/01/15 04:28:07;;;;;;;257.52;81.55;;;0.20;99.90;;;;;;5035476;28;20048;-56
2023/01/15 04:30:34;;;;;;;226.82;75.85;;;0.50;99.90;;;;;;5040682;28;20470;-56
2023/01/15 04:33:01;;;;;;;244.13;84.72;;;0.50;99.90;;;;;;5055465;28;20021;-56
2023/01/15 04:35:27;;;;;;;304.63;93.57;;;0.50;99.90;;;;;;5055220;28;20033;-57
2023/01/15 04:37:58;;;;;;;231.32;76.72;;;0.50;99.90;;;;;;5055239;28;20390;-56
2023/01/15 04:45:55;;;;;;;201.57;73.38;;;0.30;99.90;;;;;;5055174;28;20036;-56
2023/01/15 04:48:21;;;;;;;260.00;82.50;;;0.30;99.90;;;;;;5054964;28;20437;-56
2023/01/15 04:50:48;;;;;;;330.67;90.18;;;0.40;99.90;;;;;;5055079;28;20441;-56
2023/01/15 04:53:14;;;;;;;213.57;74.82;;;0.30;99.90;;;;;;5055172;28;20116;-56
2023/01/15 04:55:40;;;;;;;487.20;101.00;;;0.30;99.90;;;;;;5054804;28;20040;-56
2023/01/15 04:58:06;;;;;;;197.45;71.78;;;0.30;99.90;;;;;;5055012;28;20025;-56
2023/01/15 05:00:31;;;;;;;190.25;73.00;;;0.30;99.90;;;;;;5054987;28;20028;-56
2023/01/15 05:02:57;;;;;;;207.00;69.90;;;0.40;99.90;;;;;;5054781;28;20029;-56
2023/01/15 05:05:24;;;;;;;296.33;80.18;;;0.40;99.90;;;;;;5054863;28;20104;-56
2023/01/15 05:07:50;;;;;;;209.48;71.47;;;0.00;99.90;;;;;;5054672;28;20037;-56
2023/01/15 05:10:16;;;;;;;179.30;70.40;;;-0.20;99.90;;;;;;5054643;28;20070;-56
2023/01/15 05:12:42;;;;;;;153.32;66.22;;;-0.20;99.90;;;;;;5054616;28;20041;-56
2023/01/15 05:15:08;;;;;;;158.95;59.00;;;-0.10;99.90;;;;;;5053930;28;20032;-56
2023/01/15 05:17:34;;;;;;;177.27;64.35;;;0.00;99.90;;;;;;5054401;28;20494;-56
2023/01/15 05:20:00;;;;;;;152.00;57.40;;;0.00;99.90;;;;;;5038321;28;20033;-56
2023/01/15 05:22:26;;;;;;;133.70;57.00;;;-0.10;99.90;;;;;;5034571;28;20024;-56
2023/01/15 05:24:52;;;;;;;150.15;56.97;;;0.00;99.90;;;;;;5016787;28;20514;-56
2023/01/15 05:27:18;;;;;;;158.27;58.72;;;0.00;99.90;;;;;;5034701;28;20029;-56
2023/01/15 05:29:43;;;;;;;153.07;61.10;;;0.10;99.90;;;;;;5034622;28;20112;-56
2023/01/15 05:32:09;;;;;;;151.18;60.42;;;0.10;99.90;;;;;;5052914;28;20025;-56
2023/01/15 05:34:35;;;;;;;173.65;60.67;;;-0.10;99.90;;;;;;5054278;28;20039;-56
2023/01/15 05:37:01;;;;;;;132.13;54.35;;;-0.20;99.90;;;;;;5054733;28;20021;-56
2023/01/15 05:39:27;;;;;;;115.25;50.05;;;-0.10;99.90;;;;;;5054431;28;20087;-56
2023/01/15 05:41:53;;;;;;;102.82;48.35;;;-0.30;99.90;;;;;;5054358;28;20036;-56
2023/01/15 05:44:25;;;;;;;100.85;47.20;;;-0.40;99.90;;;;;;5054446;28;20031;-56
2023/01/15 05:46:53;;;;;;;108.05;46.75;;;-0.30;99.90;;;;;;5054306;28;20057;-56
2023/01/15 05:49:22;;;;;;;98.28;45.95;;;-0.40;99.90;;;;;;5054284;28;20573;-56
2023/01/15 05:51:48;;;;;;;130.27;55.53;;;-0.30;99.90;;;;;;5054088;28;20029;-56
2023/01/15 05:54:17;;;;;;;110.47;52.10;;;-0.20;99.90;;;;;;5054265;28;20120;-56
2023/01/15 05:56:44;;;;;;;114.30;53.30;;;-0.20;99.90;;;;;;5054202;28;20029;-56
2023/01/15 05:59:13;;;;;;;128.70;55.67;;;-0.10;99.90;;;;;;5054096;28;20045;-56
2023/01/15 06:01:40;;;;;;;129.18;58.65;;;-0.20;99.90;;;;;;5054167;28;20025;-56
2023/01/15 06:04:06;;;;;;;209.05;69.45;;;-0.10;99.90;;;;;;5054046;28;20094;-56
2023/01/15 06:06:33;;;;;;;201.85;73.40;;;-0.10;99.90;;;;;;5054147;28;20210;-56
2023/01/15 06:08:59;;;;;;;187.27;67.13;;;-0.10;99.90;;;;;;5054067;28;20069;-56
2023/01/15 06:11:25;;;;;;;185.65;71.43;;;-0.10;99.90;;;;;;5053908;28;20052;-56
2023/01/15 06:13:51;;;;;;;187.85;72.75;;;0.00;99.90;;;;;;5053887;28;20124;-56
2023/01/15 06:16:18;;;;;;;209.43;78.88;;;0.10;99.90;;;;;;5054028;28;20104;-56
2023/01/15 06:18:44;;;;;;;182.65;78.72;;;0.10;99.90;;;;;;5047999;28;20052;-56
2023/01/15 06:21:12;;;;;;;207.85;84.10;;;0.10;99.90;;;;;;5034045;28;20601;-56
2023/01/15 06:23:39;;;;;;;210.07;84.47;;;0.10;99.90;;;;;;5034005;28;20025;-56
2023/01/15 06:26:17;;;;;;;235.65;87.90;;;0.20;99.90;;;;;;5034309;28;20037;-56
2023/01/15 06:28:44;;;;;;;250.20;90.55;;;0.30;99.90;;;;;;5037671;28;20052;-56
2023/01/15 06:31:12;;;;;;;229.93;89.72;;;0.30;99.90;;;;;;5047926;28;20090;-56
2023/01/15 06:33:38;;;;;;;268.42;99.45;;;0.40;99.90;;;;;;5057557;28;20513;-56
2023/01/15 06:36:06;;;;;;;244.63;96.05;;;0.40;99.90;;;;;;5057622;28;20017;-56
2023/01/15 06:38:32;;;;;;;257.73;102.82;;;0.40;99.90;;;;;;5057594;28;20455;-56
2023/01/15 06:41:00;;;;;;;310.35;125.57;;;0.40;99.90;;;;;;5057492;28;20075;-56
2023/01/15 06:48:55;;;;;;;280.33;111.30;;;0.20;99.90;;;;;;5057225;28;20037;-56
2023/01/15 06:51:21;;;;;;;321.85;128.10;;;0.00;99.90;;;;;;5057328;28;20103;-56
2023/01/15 06:53:47;;;;;;;343.67;131.80;;;-0.10;99.90;;;;;;5057220;28;20033;-56
2023/01/15 06:56:14;;;;;;;291.52;118.55;;;-0.20;99.90;;;;;;5057108;28;20056;-56
2023/01/15 06:58:41;;;;;;;302.20;120.82;;;-0.10;99.90;;;;;;5057102;28;20021;-56
2023/01/15 07:01:12;;;;;;;309.30;124.22;;;-0.20;99.90;;;;;;5057103;28;20053;-56
2023/01/15 07:03:38;;;;;;;342.98;134.05;;;-0.10;99.90;;;;;;5056943;28;20035;-56
2023/01/15 07:06:09;;;;;;;319.60;131.48;;;-0.10;99.90;;;;;;5057003;28;20124;-56
2023/01/15 07:08:35;;;;;;;360.05;140.95;;;-0.10;99.90;;;;;;5056817;28;20376;-56
2023/01/15 07:11:06;;;;;;;347.10;139.45;;;-0.10;99.90;;;;;;5056588;28;20110;-56
2023/01/15 07:13:33;;;;;;;310.40;130.52;;;0.00;99.90;;;;;;5056917;28;20021;-56
2023/01/15 07:16:00;;;;;;;293.15;128.93;;;0.30;99.90;;;;;;5056876;28;20108;-56
2023/01/15 07:18:31;;;;;;;270.38;120.90;;;0.90;99.90;;;;;;5053165;28;20013;-56
2023/01/15 07:20:57;;;;;;;;;;;1.60;99.90;;;;;;5037202;28;20106;-56
2023/01/15 07:23:25;;;;;;;272.85;118.25;;;2.10;99.90;;;;;;5036608;28;20003;-56
2023/01/15 07:25:54;;;;;;;248.30;111.57;;;3.00;99.90;;;;;;5036737;28;20030;-56
2023/01/15 07:28:22;;;;;;;221.68;104.10;;;3.50;99.90;;;;;;5036754;28;20029;-56
2023/01/15 07:30:48;;;;;;;230.80;106.10;;;4.20;99.90;;;;;;5043746;28;20025;-57
2023/01/15 07:33:14;;;;;;;219.27;104.90;;;4.60;99.90;;;;;;5056511;28;20068;-57
2023/01/15 07:35:40;;;;;;;199.63;94.72;;;5.20;99.90;;;;;;5056238;28;20041;-57
2023/01/15 07:38:06;;;;;;;207.85;97.30;;;5.80;99.90;;;;;;5055609;28;20028;-57
2023/01/15 07:40:32;;;;;;;197.30;95.18;;;6.70;97.30;;;;;;5056602;28;20079;-57
2023/01/15 07:51:29;;;;;;;163.25;82.22;;;9.50;82.70;;;;;;5056322;28;20031;-57
2023/01/15 07:53:54;;;;;;;145.48;77.80;;;9.40;76.80;;;;;;5055960;28;20449;-57
2023/01/15 07:56:20;;;;;;;155.25;81.00;;;10.60;73.60;;;;;;5056078;28;20132;-57
2023/01/15 07:58:49;;;;;;;154.65;78.07;;;11.20;68.10;;;;;;5055932;28;20029;-57
2023/01/15 08:01:15;;;;;;;138.45;75.10;;;9.10;75.70;;;;;;5055878;28;20083;-57
2023/01/15 08:03:41;;;;;;;131.88;68.97;;;10.40;70.90;;;;;;5055934;28;20443;-57
2023/01/15 08:06:07;;;;;;;135.07;72.70;;;11.70;66.30;;;;;;5055871;28;20391;-58
2023/01/15 08:08:33;;;;;;;97.80;57.05;;;12.70;59.50;;;;;;5055798;28;20021;-58
2023/01/15 08:16:34;;;;;;;113.13;57.75;;;12.70;57.40;;;;;;5055786;28;20057;-58
2023/01/15 08:19:00;;;;;;;128.32;64.03;;;12.40;57.40;;;;;;5047475;28;20020;-58
2023/01/15 08:21:26;;;;;;;142.55;68.28;;;12.00;57.90;;;;;;5035589;28;20108;-57
2023/01/15 08:23:53;;;;;;;154.15;73.88;;;11.00;58.70;;;;;;5035496;28;20036;-58
2023/01/15 08:26:19;;;;;;;134.65;67.32;;;8.50;69.00;;;;;;5035662;28;20018;-58
2023/01/15 08:28:45;;;;;;;149.05;73.82;;;7.70;82.60;;;;;;5035463;28;20094;-58
2023/01/15 08:31:10;;;;;;;161.90;77.43;;;7.20;83.90;;;;;;5045867;28;20025;-58
2023/01/15 08:33:36;;;;;;;141.50;71.18;;;7.00;91.60;;;;;;5055229;28;20021;-58
2023/01/15 08:36:03;;;;;;;161.05;76.18;;;6.80;94.90;;;;;;5055233;28;20027;-58
2023/01/15 08:38:28;;;;;;;168.52;71.68;;;6.80;94.70;;;;;;5055104;28;20505;-58
2023/01/15 08:40:58;;;;;;;135.75;67.55;;;6.60;93.30;;;;;;5055292;28;20025;-58
2023/01/15 08:43:25;;;;;;;139.18;67.03;;;7.00;95.20;;;;;;5055063;28;20383;-57
2023/01/15 08:45:52;;;;;;;125.25;64.63;;;7.10;96.60;;;;;;5055055;28;20037;-58
2023/01/15 08:48:18;;;;;;;121.55;63.78;;;6.90;94.10;;;;;;5055100;28;20029;-58
2023/01/15 08:50:44;;;;;;;134.77;67.68;;;7.10;95.90;;;;;;5053897;28;20028;-57
2023/01/15 08:53:10;;;;;;;130.30;68.80;;;7.10;94.30;;;;;;5054996;28;20040;-57
2023/01/15 08:55:37;;;;;;;141.15;70.93;;;7.00;96.00;;;;;;5054920;28;20033;-58
2023/01/15 08:58:03;;;;;;;136.40;70.40;;;7.30;96.90;;;;;;5054897;28;20029;-58
2023/01/15 09:00:29;;;;;;;124.18;64.32;;;7.30;97.70;;;;;;5054918;28;20051;-58
2023/01/15 09:02:55;;;;;;;134.13;65.72;;;8.00;94.60;;;;;;5054810;28;20055;-58
2023/01/15 09:05:20;;;;;;;153.50;71.18;;;8.50;91.60;;;;;;5054619;28;20064;-57
2023/01/15 09:07:46;;;;;;;144.27;73.00;;;8.20;91.90;;;;;;5054897;28;20027;-58
2023/01/15 09:10:12;;;;;;;143.18;74.68;;;7.80;95.60;;;;;;5054347;28;20522;-58
2023/01/15 09:12:38;;;;;;;159.48;75.90;;;7.70;95.10;;;;;;5054505;28;20033;-58
2023/01/15 09:15:05;;;;;;;165.13;81.10;;;7.80;97.10;;;;;;5054474;28;20119;-58
2023/01/15 09:17:32;;;;;;;155.45;79.80;;;7.80;99.90;;;;;;5054480;28;20075;-58
2023/01/15 09:19:58;;;;;;;146.50;75.78;;;8.70;96.70;;;;;;5038590;28;20026;-58
2023/01/15 09:22:28;;;;;;;159.95;79.53;;;9.60;94.20;;;;;;5034879;28;20101;-58
2023/01/15 09:24:54;;;;;;;131.35;71.20;;;10.50;90.00;;;;;;5034497;28;20029;-58
2023/01/15 09:27:20;;;;;;;136.50;69.45;;;11.00;82.10;;;;;;5034730;28;20438;-58
2023/01/15 09:29:46;;;;;;;132.93;71.00;;;11.10;77.70;;;;;;5034509;28;20028;-58
2023/01/15 09:32:12;;;;;;;129.48;69.25;;;10.80;77.60;;;;;;5053158;28;20033;-58
2023/01/15 09:34:38;;;;;;;135.82;67.45;;;11.50;73.10;;;;;;5054009;28;20052;-58
2023/01/15 09:37:04;;;;;;;129.88;66.43;;;11.10;70.20;;;;;;5054276;28;20486;-58
2023/01/15 09:39:30;;;;;;;130.10;67.00;;;10.70;72.30;;;;;;5054684;28;20048;-58
2023/01/15 09:42:06;;;;;;;139.10;71.43;;;10.20;76.90;;;;;;5054396;28;20481;-58
2023/01/15 09:44:55;;;;;;;138.20;70.25;;;10.00;78.50;;;;;;5054301;28;20025;-58
2023/01/15 09:47:30;;;;;;;135.75;69.40;;;10.40;79.10;;;;;;5054050;28;20080;-58
2023/01/15 09:50:20;;;;;;;117.38;65.15;;;10.30;77.40;;;;;;5052999;28;20029;-58
2023/01/15 09:52:48;;;;;;;119.63;64.65;;;10.40;77.00;;;;;;5054420;28;20040;-58
2023/01/15 09:55:19;;;;;;;122.60;68.75;;;10.20;77.80;;;;;;5054420;28;20037;-58
2023/01/15 09:57:50;;;;;;;127.28;67.43;;;10.80;76.70;;;;;;5054592;28;20025;-58
2023/01/15 10:00:23;;;;;;;119.68;64.57;;;10.50;76.10;;;;;;5054299;28;20374;-58
2023/01/15 10:02:57;;;;;;;120.13;65.50;;;10.50;79.90;;;;;;5057385;28;20025;-58
2023/01/15 10:06:00;;;;;;;119.25;64.40;;;11.00;76.80;;;;;;5058221;28;20064;-58
2023/01/15 10:08:29;;;;;;;131.32;67.07;;;11.10;82.20;;;;;;5057975;28;20033;-58
2023/01/15 10:11:18;;;;;;;114.38;62.53;;;12.00;75.20;;;;;;5057939;28;20068;-58
2023/01/15 10:13:49;;;;;;;112.10;61.40;;;11.70;74.40;;;;;;5057991;28;20028;-58
2023/01/15 10:16:24;;;;;;;132.35;67.13;;;12.30;74.10;;;;;;5058002;28;20035;-59
2023/01/15 10:18:51;;;;;;;118.53;62.50;;;12.80;70.30;;;;;;5051161;28;20456;-59
2023/01/15 10:21:37;;;;;;;116.10;63.38;;;13.30;68.50;;;;;;5038009;28;20026;-59
2023/01/15 10:24:25;;;;;;;119.63;66.22;;;13.60;66.00;;;;;;5037739;28;20040;-59
2023/01/15 10:26:56;;;;;;;124.53;66.85;;;13.50;65.40;;;;;;5037671;28;20407;-59
2023/01/15 10:29:30;;;;;;;111.72;64.47;;;13.40;64.00;;;;;;5037767;28;20032;-59
2023/01/15 10:32:13;;;;;;;110.00;64.72;;;13.40;66.00;;;;;;5054478;28;20467;-59
2023/01/15 10:35:16;;;;;;;117.78;66.88;;;13.60;65.60;;;;;;5057583;28;20384;-59
2023/01/15 10:38:06;;;;;;;124.68;66.28;;;14.00;64.10;;;;;;5057436;28;20382;-59
2023/01/15 10:40:50;;;;;;;122.55;69.95;;;13.90;63.50;;;;;;5057521;28;20118;-59
2023/01/15 10:43:26;;;;;;;124.78;73.53;;;13.90;64.90;;;;;;5057416;28;20084;-59
2023/01/15 10:45:58;;;;;;;146.35;77.70;;;13.80;64.20;;;;;;5057781;28;20483;-59
2023/01/15 10:48:50;;;;;;;119.80;72.85;;;13.80;63.00;;;;;;5057374;28;20037;-59
2023/01/15 10:51:24;;;;;;;133.80;77.22;;;13.90;63.60;;;;;;5057274;28;20038;-59
2023/01/15 10:53:55;;;;;;;141.52;79.32;;;13.80;65.60;;;;;;5057081;28;20458;-59
2023/01/15 10:57:01;;;;;;;124.50;73.78;;;14.20;64.60;;;;;;5057238;28;20060;-59
2023/01/15 10:59:33;;;;;;;139.57;76.28;;;14.50;63.30;;;;;;5056785;28;20518;-59
2023/01/15 11:02:01;;;;;;;124.32;72.65;;;14.90;62.80;;;;;;5057010;28;20356;-59
2023/01/15 11:04:31;;;;;;;133.38;76.55;;;15.30;61.50;;;;;;5057115;28;20433;-59
2023/01/15 11:06:59;;;;;;;129.23;76.00;;;15.20;60.30;;;;;;5057113;28;20041;-59
2023/01/15 11:09:31;;;;;;;135.10;75.80;;;15.30;60.40;;;;;;5038837;28;20298;-59
2023/01/15 11:20:34;;;;;;;119.95;71.47;;;15.60;60.10;;;;;;5016939;28;20048;-59
2023/01/15 11:23:18;;;;;;;126.72;70.38;;;15.80;59.10;;;;;;5017129;28;20026;-59
2023/01/15 11:25:53;;;;;;;120.43;68.15;;;16.10;58.70;;;;;;5017172;28;20084;-59
2023/01/15 11:28:38;;;;;;;109.95;66.53;;;16.50;56.90;;;;;;5016835;28;20034;-59
2023/01/15 11:31:06;;;;;;;123.82;71.63;;;16.20;55.80;;;;;;5036165;28;20029;-60
2023/01/15 11:33:33;;;;;;;119.25;72.05;;;16.60;56.90;;;;;;5056375;28;20052;-59
2023/01/15 11:36:03;;;;;;;125.28;70.72;;;16.60;58.20;;;;;;5056414;28;20055;-60
2023/01/15 11:38:47;;;;;;;118.57;68.75;;;16.90;56.00;;;;;;5056466;28;20102;-59
2023/01/15 11:50:42;;;;;;;109.10;67.88;;;17.10;55.70;;;;;;5056278;28;20029;-59
2023/01/15 11:52:42;;;;;;;124.00;66.90;;;17.50;54.00;;;;;;5056127;28;20038;-59
2023/01/15 11:55:19;;;;;;;113.68;65.18;;;17.90;52.90;;;;;;5055991;28;20032;-59
2023/01/15 11:57:46;;;;;;;127.95;69.50;;;18.10;53.10;;;;;;5056089;28;20423;-59
2023/01/15 12:00:36;;;;;;;109.40;66.53;;;17.60;53.70;;;;;;5055968;28;20029;-60
2023/01/15 12:03:13;;;;;;;116.00;67.43;;;17.80;53.10;;;;;;5055983;28;20202;-60
2023/01/15 12:05:58;;;;;;;116.00;66.03;;;17.50;55.60;;;;;;5055879;28;20040;-60
2023/01/15 12:08:54;;;;;;;103.25;62.97;;;17.90;53.80;;;;;;5055756;28;20025;-60
2023/01/15 12:11:48;;;;;;;101.72;61.28;;;18.10;53.80;;;;;;5050371;28;20102;-60
2023/01/15 12:14:51;;;;;;;113.82;63.40;;;18.40;52.20;;;;;;5055463;28;20067;-60
2023/01/15 12:17:47;;;;;;;98.38;59.45;;;17.60;52.90;;;;;;5055520;28;20025;-60
2023/01/15 12:20:32;;;;;;;105.40;59.40;;;17.90;51.50;;;;;;5037473;28;20037;-60
2023/01/15 12:23:13;;;;;;;95.95;58.95;;;18.40;50.10;;;;;;5035561;28;20026;-60
2023/01/15 12:25:57;;;;;;;95.90;57.40;;;18.70;49.70;;;;;;5035318;28;20034;-60
2023/01/15 12:28:30;;;;;;;97.55;56.60;;;18.40;49.90;;;;;;5035683;28;20525;-60
2023/01/15 12:31:15;;;;;;;91.57;54.33;;;18.90;49.40;;;;;;5043728;28;20395;-60
2023/01/15 12:33:41;;;;;;;96.93;55.70;;;18.20;48.70;;;;;;5055331;28;20039;-60
2023/01/15 12:36:39;;;;;;;93.53;55.17;;;18.70;48.90;;;;;;5055204;28;20029;-60
2023/01/15 12:39:29;;;;;;;92.88;56.13;;;19.00;48.50;;;;;;5055134;28;20382;-60
2023/01/15 12:45:03;;;;;;;102.30;56.38;;;18.30;48.60;;;;;;5055172;28;20063;-60
2023/01/15 12:47:48;;;;;;;93.45;55.25;;;18.10;49.40;;;;;;5055097;28;20037;-60
2023/01/15 12:50:30;;;;;;;88.32;53.15;;;18.30;49.20;;;;;;5055234;28;20474;-60
2023/01/15 12:53:18;;;;;;;88.25;53.42;;;19.00;47.90;;;;;;5055454;28;20029;-60
2023/01/15 12:56:00;;;;;;;86.47;51.83;;;18.50;48.10;;;;;;5054807;28;20106;-60
2023/01/15 12:58:29;;;;;;;83.95;52.28;;;18.40;48.70;;;;;;5054911;28;20086;-60
2023/01/15 13:01:10;;;;;;;84.72;52.13;;;18.60;48.50;;;;;;5054717;28;20021;-60
2023/01/15 13:03:57;;;;;;;88.45;53.33;;;18.80;47.90;;;;;;5054816;28;20156;-60
2023/01/15 13:06:27;;;;;;;92.60;53.55;;;17.70;48.90;;;;;;5054763;28;20032;-60
2023/01/15 13:09:03;;;;;;;86.40;52.30;;;17.80;50.30;;;;;;5054728;28;20059;-60
2023/01/15 13:11:29;;;;;;;82.53;50.70;;;18.60;48.10;;;;;;5074429;28;20040;-60
2023/01/15 13:13:58;;;;;;;84.47;51.22;;;18.50;48.70;;;;;;5074578;28;20029;-60
2023/01/15 13:17:02;;;;;;;79.80;47.50;;;18.80;47.70;;;;;;5074672;28;20024;-60
2023/01/15 13:19:45;;;;;;;80.47;46.30;;;18.40;47.70;;;;;;5062455;28;20038;-60
2023/01/15 13:22:17;;;;;;;102.93;53.67;;;18.20;47.40;;;;;;5054712;28;20028;-60
2023/01/15 13:25:18;;;;;;;86.57;46.60;;;17.90;47.90;;;;;;5054503;28;20037;-60
2023/01/15 13:28:00;;;;;;;74.25;45.70;;;17.90;47.80;;;;;;5054453;28;20036;-60
2023/01/15 13:30:52;;;;;;;66.93;42.25;;;18.30;47.10;;;;;;5058543;28;20215;-60
2023/01/15 13:33:31;;;;;;;67.00;41.38;;;17.80;48.50;;;;;;5074645;28;20067;-60
2023/01/15 13:36:12;;;;;;;68.72;42.55;;;17.70;49.40;;;;;;5073752;28;20089;-60
2023/01/15 13:38:42;;;;;;;73.15;43.45;;;18.00;47.20;;;;;;5074402;28;20043;-60